Leiding, Minnesota
Current Conditions -  °F | °C
As of 8:53 AM on Sunday 28 Dec 2014 (Local Time) from KORB Reporting Station
Scattered Clouds Scattered Clouds  
Wind Chill: -19°   Ceiling: Unl
Heat Index: -4°   Visibility: 10mi
Dew Point: -9°   Wind: 8mph
Humidity: 78%   Direction: 310°NW
Pressure: 30.12"   Gusts: NA
Location:  48.1455°N, 92.8504°W
Report Text: KORB 281453Z AUTO 31007KT 10SM SCT014 M20/M23 A3012 RMK AO2
Loading
Personal Weather Stations






























Interactive Weather Map New forecast layout! Learn more

10-Day Weather Forecast

Advertisements
Track Severe Weather on mobile